createdAt,value
2023-05-18T00:00:45.169Z,9.77
2023-05-18T00:01:45.162Z,9.79
2023-05-18T00:02:45.211Z,9.77
2023-05-18T00:03:45.264Z,9.73
2023-05-18T00:04:45.240Z,9.73
2023-05-18T00:05:45.101Z,9.72
2023-05-18T00:06:45.104Z,9.73
2023-05-18T00:07:45.614Z,9.69
2023-05-18T00:08:45.059Z,9.66
2023-05-18T00:09:45.058Z,9.64
2023-05-18T00:10:45.032Z,9.61
2023-05-18T00:11:45.080Z,9.64
2023-05-18T00:12:45.120Z,9.64
2023-05-18T00:13:45.016Z,9.64
2023-05-18T00:14:44.980Z,9.65
2023-05-18T00:15:44.996Z,9.64
2023-05-18T00:16:45.121Z,9.65
2023-05-18T00:17:45.121Z,9.64
2023-05-18T00:18:44.986Z,9.59
2023-05-18T00:19:44.961Z,9.56
2023-05-18T00:20:44.924Z,9.51
2023-05-18T00:21:44.923Z,9.51
2023-05-18T00:22:44.956Z,9.50
2023-05-18T00:23:44.971Z,9.48
2023-05-18T00:24:44.883Z,9.50
2023-05-18T00:25:44.934Z,9.48
2023-05-18T00:26:44.860Z,9.51
2023-05-18T00:27:44.962Z,9.48
2023-05-18T00:28:44.840Z,9.50
2023-05-18T00:29:44.865Z,9.51
2023-05-18T00:30:44.844Z,9.51
2023-05-18T00:31:44.892Z,9.47
2023-05-18T00:32:44.880Z,9.48
2023-05-18T00:33:44.833Z,9.46
2023-05-18T00:34:44.785Z,9.46
2023-05-18T00:35:44.797Z,9.44
2023-05-18T00:36:44.764Z,9.43
2023-05-18T00:37:44.835Z,9.41
2023-05-18T00:38:44.753Z,9.41
2023-05-18T00:39:44.743Z,9.41
2023-05-18T00:40:44.816Z,9.41
2023-05-18T00:41:44.739Z,9.40
2023-05-18T00:42:44.809Z,9.39
2023-05-18T00:43:44.707Z,9.41
2023-05-18T00:44:44.681Z,9.43
2023-05-18T00:45:44.730Z,9.41
2023-05-18T00:46:44.660Z,9.40
2023-05-18T00:47:44.741Z,9.41
2023-05-18T00:48:45.131Z,9.39
2023-05-18T00:49:44.643Z,9.36
2023-05-18T00:50:44.664Z,9.36
2023-05-18T00:51:44.624Z,9.32
2023-05-18T00:52:44.664Z,9.34
2023-05-18T00:53:44.625Z,9.31
2023-05-18T00:54:44.610Z,9.32
2023-05-18T00:55:44.586Z,9.32
2023-05-18T00:56:44.541Z,9.32
2023-05-18T00:57:44.626Z,9.34
2023-05-18T00:58:44.532Z,9.34
2023-05-18T00:59:44.573Z,9.32
2023-05-18T01:00:44.657Z,9.31
2023-05-18T01:01:44.549Z,9.31
2023-05-18T01:02:44.565Z,9.28
2023-05-18T01:03:44.511Z,9.25
2023-05-18T01:04:44.525Z,9.23
2023-05-18T01:05:44.495Z,9.22
2023-05-18T01:06:44.440Z,9.21
2023-05-18T01:07:44.523Z,9.18
2023-05-18T01:08:44.423Z,9.18
2023-05-18T01:09:44.416Z,9.14
2023-05-18T01:10:44.407Z,9.14
2023-05-18T01:11:44.428Z,9.11
2023-05-18T01:12:44.401Z,9.14
2023-05-18T01:13:44.420Z,9.16
2023-05-18T01:14:44.364Z,9.18
2023-05-18T01:15:44.370Z,9.18
2023-05-18T01:16:44.335Z,9.16
2023-05-18T01:17:44.387Z,9.16
2023-05-18T01:18:44.383Z,9.13
2023-05-18T01:19:44.326Z,9.08
2023-05-18T01:20:44.341Z,9.10
2023-05-18T01:21:44.306Z,9.10
2023-05-18T01:22:44.345Z,9.08
2023-05-18T01:23:44.280Z,9.08
2023-05-18T01:24:44.309Z,9.04
2023-05-18T01:25:44.235Z,9.06
2023-05-18T01:26:44.238Z,9.04
2023-05-18T01:27:44.254Z,9.04
2023-05-18T01:28:44.342Z,9.02
2023-05-18T01:29:44.198Z,9.02
2023-05-18T06:00:42.404Z,8.92
2023-05-18T06:01:43.377Z,8.95
2023-05-18T06:02:43.960Z,8.95
2023-05-18T06:03:43.365Z,8.95
2023-05-18T06:04:43.302Z,8.97
2023-05-18T06:05:43.318Z,9.00
2023-05-18T06:06:43.287Z,9.03
2023-05-18T06:07:43.332Z,9.03
2023-05-18T06:08:43.252Z,9.06
2023-05-18T06:09:43.283Z,9.06
2023-05-18T06:10:43.284Z,9.08
2023-05-18T06:11:43.240Z,9.11
2023-05-18T06:12:43.261Z,9.13
2023-05-18T06:13:43.225Z,9.14
2023-05-18T06:14:43.224Z,9.19
2023-05-18T06:15:43.211Z,9.21
2023-05-18T06:16:43.251Z,9.22
2023-05-18T06:17:44.177Z,9.25
2023-05-18T06:18:43.260Z,9.25
2023-05-18T06:19:43.155Z,9.28
2023-05-18T06:20:43.145Z,9.29
2023-05-18T06:21:43.127Z,9.29
2023-05-18T06:22:43.126Z,9.32
2023-05-18T06:23:43.121Z,9.31
2023-05-18T06:24:43.135Z,9.34
2023-05-18T06:25:43.099Z,9.36
2023-05-18T06:26:43.104Z,9.39
2023-05-18T06:27:43.072Z,9.40
2023-05-18T06:28:43.050Z,9.43
2023-05-18T06:29:43.063Z,9.43
2023-05-18T06:30:43.050Z,9.44
2023-05-18T06:31:43.044Z,9.46
2023-05-18T06:32:43.055Z,9.48
2023-05-18T06:33:43.050Z,9.50
2023-05-18T06:34:43.011Z,9.51
2023-05-18T06:35:43.012Z,9.54
2023-05-18T06:36:42.981Z,9.56
2023-05-18T06:37:44.746Z,9.56
2023-05-18T06:38:42.958Z,9.58
2023-05-18T06:39:42.953Z,9.59
2023-05-18T06:40:42.922Z,9.61
2023-05-18T06:41:42.943Z,9.62
2023-05-18T06:42:42.922Z,9.64
2023-05-18T06:43:42.925Z,9.66
2023-05-18T06:44:42.883Z,9.69
2023-05-18T06:45:42.916Z,9.69
2023-05-18T06:46:42.952Z,9.73
2023-05-18T06:47:42.945Z,9.73
2023-05-18T06:48:42.838Z,9.76
2023-05-18T06:49:42.869Z,9.80
2023-05-18T06:50:42.822Z,9.83
2023-05-18T06:51:42.837Z,9.83
2023-05-18T06:52:42.796Z,9.86
2023-05-18T06:53:42.846Z,9.87
2023-05-18T06:54:42.813Z,9.91
2023-05-18T06:55:42.867Z,9.91
2023-05-18T06:56:42.778Z,9.97
2023-05-18T06:57:42.788Z,9.95
2023-05-18T06:58:42.740Z,9.99
2023-05-18T06:59:42.760Z,10.02
2023-05-18T07:00:42.795Z,10.04
2023-05-18T07:01:42.872Z,10.07
2023-05-18T07:02:42.817Z,10.10
2023-05-18T07:03:42.875Z,10.12
2023-05-18T07:04:42.766Z,10.13
2023-05-18T07:05:42.752Z,10.16
2023-05-18T07:06:42.800Z,10.16
2023-05-18T07:07:42.702Z,10.20
2023-05-18T07:08:42.630Z,10.20
2023-05-18T07:09:42.647Z,10.22
2023-05-18T07:10:42.660Z,10.25
2023-05-18T07:11:42.670Z,10.25
2023-05-18T07:12:42.601Z,10.30
2023-05-18T07:13:42.590Z,10.31
2023-05-18T07:14:42.555Z,10.33
2023-05-18T07:15:42.585Z,10.37
2023-05-18T07:16:42.539Z,10.40
2023-05-18T07:17:42.549Z,10.41
2023-05-18T07:18:42.584Z,10.44
2023-05-18T07:19:42.522Z,10.48
2023-05-18T07:20:42.504Z,10.51
2023-05-18T07:21:42.533Z,10.54
2023-05-18T07:22:42.482Z,10.57
2023-05-18T07:23:42.496Z,10.60
2023-05-18T07:24:42.461Z,10.61
2023-05-18T07:25:42.519Z,10.64
2023-05-18T07:26:42.458Z,10.67
2023-05-18T07:27:42.432Z,10.69
2023-05-18T07:28:42.411Z,10.72
2023-05-18T07:29:42.458Z,10.74
2023-05-18T07:30:42.398Z,10.74
2023-05-18T07:31:42.519Z,10.76
2023-05-18T07:32:42.440Z,10.81
2023-05-18T07:33:42.376Z,10.82
2023-05-18T07:34:42.352Z,10.86
2023-05-18T07:35:42.342Z,10.90
2023-05-18T07:36:42.352Z,10.93
2023-05-18T07:37:42.355Z,10.93
2023-05-18T07:38:42.336Z,10.96
2023-05-18T07:39:42.385Z,11.02
2023-05-18T07:40:42.292Z,11.02
2023-05-18T07:41:42.293Z,11.05
2023-05-18T07:42:42.260Z,11.08
2023-05-18T07:43:42.280Z,11.12
2023-05-18T07:44:42.295Z,11.17
2023-05-18T07:45:42.258Z,11.22
2023-05-18T07:46:42.284Z,11.23
2023-05-18T07:47:42.276Z,11.26
2023-05-18T07:48:42.209Z,11.27
2023-05-18T07:49:42.253Z,11.29
2023-05-18T07:50:42.192Z,11.30
2023-05-18T07:51:42.188Z,11.29
2023-05-18T07:52:42.159Z,11.33
2023-05-18T07:53:42.163Z,11.37
2023-05-18T07:54:42.167Z,11.41
2023-05-18T07:55:42.156Z,11.44
2023-05-18T07:56:42.129Z,11.47
2023-05-18T07:57:42.222Z,11.50
2023-05-18T07:58:42.114Z,11.54
2023-05-18T07:59:42.140Z,11.59
2023-05-18T08:00:42.070Z,11.62
2023-05-18T08:01:45.317Z,11.62
2023-05-18T08:02:45.071Z,11.63
2023-05-18T08:03:43.138Z,11.66
2023-05-18T08:04:42.109Z,11.70
2023-05-18T08:05:42.045Z,11.72
2023-05-18T08:06:42.009Z,11.75
2023-05-18T08:07:42.040Z,11.77
2023-05-18T08:08:42.239Z,11.80
2023-05-18T08:09:42.036Z,11.83
2023-05-18T08:10:41.988Z,11.84
2023-05-18T08:11:41.971Z,11.86
2023-05-18T08:12:41.961Z,11.91
2023-05-18T08:13:41.971Z,11.95
2023-05-18T08:14:41.962Z,11.97
2023-05-18T08:15:41.930Z,12.00
2023-05-18T08:16:41.953Z,12.03
2023-05-18T08:17:42.016Z,12.04
2023-05-18T08:18:42.025Z,12.06
2023-05-18T08:19:42.138Z,12.10
2023-05-18T08:20:41.876Z,12.13
2023-05-18T08:21:41.863Z,12.18
2023-05-18T08:22:41.844Z,12.20
2023-05-18T08:23:41.864Z,12.24
2023-05-18T08:24:41.844Z,12.27
2023-05-18T08:25:41.822Z,12.31
2023-05-18T08:26:41.800Z,12.36
2023-05-18T08:27:41.809Z,12.40
2023-05-18T08:28:41.832Z,12.43
2023-05-18T08:29:41.824Z,12.42
2023-05-18T08:30:41.748Z,12.45
2023-05-18T08:31:41.820Z,12.46
2023-05-18T08:32:41.800Z,12.50
2023-05-18T08:33:41.741Z,12.53
2023-05-18T08:34:41.742Z,12.57
2023-05-18T08:35:41.728Z,12.60
2023-05-18T08:36:41.692Z,12.60
2023-05-18T08:37:41.700Z,12.64
2023-05-18T08:38:41.706Z,12.65
2023-05-18T08:39:41.714Z,12.72
2023-05-18T08:40:41.695Z,12.75
2023-05-18T08:41:41.645Z,12.79
2023-05-18T08:42:49.152Z,12.85
2023-05-18T08:43:41.651Z,12.87
2023-05-18T08:44:41.622Z,12.93
2023-05-18T08:45:41.629Z,12.94
2023-05-18T08:46:41.604Z,12.98
2023-05-18T08:47:41.795Z,12.98
2023-05-18T08:48:41.688Z,13.00
2023-05-18T08:49:41.580Z,13.04
2023-05-18T08:50:41.544Z,13.05
2023-05-18T08:51:41.567Z,13.05
2023-05-18T08:52:41.524Z,13.09
2023-05-18T08:53:41.534Z,13.11
2023-05-18T08:54:41.489Z,13.15
2023-05-18T08:55:41.552Z,13.15
2023-05-18T08:56:41.513Z,13.18
2023-05-18T08:57:41.480Z,13.20
2023-05-18T08:58:41.469Z,13.23
2023-05-18T08:59:41.488Z,13.25
2023-05-18T09:00:41.438Z,13.33
2023-05-18T09:01:41.462Z,13.35
2023-05-18T09:02:41.453Z,13.38
2023-05-18T09:03:41.430Z,13.41
2023-05-18T09:04:41.418Z,13.47
2023-05-18T09:05:41.420Z,13.49
2023-05-18T09:06:41.366Z,13.54
2023-05-18T09:07:41.373Z,13.57
2023-05-18T09:08:41.342Z,13.60
2023-05-18T09:09:41.555Z,13.63
2023-05-18T09:10:41.320Z,13.68
2023-05-18T09:11:41.341Z,13.70
2023-05-18T09:12:41.299Z,13.72
2023-05-18T09:13:41.367Z,13.77
2023-05-18T09:14:41.313Z,13.78
2023-05-18T09:15:41.340Z,13.83
2023-05-18T09:16:41.267Z,13.86
2023-05-18T09:17:41.299Z,13.89
2023-05-18T09:18:41.322Z,13.93
2023-05-18T09:19:41.281Z,13.95
2023-05-18T09:20:41.221Z,13.96
2023-05-18T09:21:41.247Z,14.00
2023-05-18T09:22:41.221Z,13.99
2023-05-18T09:23:41.259Z,13.99
2023-05-18T09:24:41.183Z,14.00
2023-05-18T09:25:41.179Z,14.00
2023-05-18T09:26:41.174Z,13.99
2023-05-18T09:27:41.169Z,14.03
2023-05-18T09:28:41.263Z,14.04
2023-05-18T09:29:41.159Z,14.05
2023-05-18T09:30:41.115Z,14.07
2023-05-18T09:31:41.210Z,14.08
2023-05-18T09:32:41.100Z,14.12
2023-05-18T09:33:41.189Z,14.15
2023-05-18T09:34:41.183Z,14.20
2023-05-18T09:35:41.069Z,14.23
2023-05-18T09:36:41.043Z,14.25
2023-05-18T09:37:41.071Z,14.26
2023-05-18T09:38:41.046Z,14.28
2023-05-18T09:39:41.063Z,14.29
2023-05-18T09:40:41.007Z,14.29
2023-05-18T09:41:41.024Z,14.30
2023-05-18T09:42:40.999Z,14.32
2023-05-18T09:43:41.029Z,14.32
2023-05-18T09:44:40.959Z,14.30
2023-05-18T09:45:40.980Z,14.35
2023-05-18T09:46:40.976Z,14.36
2023-05-18T09:47:40.968Z,14.36
2023-05-18T09:48:40.958Z,14.43
2023-05-18T09:49:40.943Z,14.44
2023-05-18T09:50:40.934Z,14.48
2023-05-18T09:51:40.892Z,14.51
2023-05-18T09:52:40.886Z,14.54
2023-05-18T09:53:40.950Z,14.58
2023-05-18T09:54:40.958Z,14.63
2023-05-18T09:55:41.905Z,14.66
2023-05-18T09:56:40.866Z,14.69
2023-05-18T09:57:40.859Z,14.73
2023-05-18T09:58:40.845Z,14.78
2023-05-18T09:59:40.856Z,14.84
2023-05-18T10:00:40.964Z,14.84
2023-05-18T10:01:40.802Z,14.88
2023-05-18T10:02:40.808Z,14.92
2023-05-18T10:03:40.827Z,14.97
2023-05-18T10:04:40.836Z,14.99
2023-05-18T10:05:40.749Z,15.02
2023-05-18T10:06:40.722Z,15.04
2023-05-18T10:07:40.724Z,15.10
2023-05-18T10:08:40.767Z,15.15
2023-05-18T10:09:40.724Z,15.22
2023-05-18T10:10:40.732Z,15.25
2023-05-18T10:11:40.959Z,15.33
2023-05-18T10:12:41.533Z,15.36
2023-05-18T10:13:41.988Z,15.40
2023-05-18T10:14:40.673Z,15.40
2023-05-18T10:15:40.660Z,15.43
2023-05-18T10:16:40.674Z,15.46
2023-05-18T10:17:40.734Z,15.47
2023-05-18T10:18:40.736Z,15.52
2023-05-18T10:19:40.587Z,15.57
2023-05-18T10:20:40.624Z,15.59
2023-05-18T10:21:40.571Z,15.62
2023-05-18T10:22:40.600Z,15.67
2023-05-18T10:23:40.579Z,15.72
2023-05-18T10:24:40.574Z,15.76
2023-05-18T10:25:40.571Z,15.80
2023-05-18T10:26:40.894Z,15.84
2023-05-18T10:27:40.506Z,15.90
2023-05-18T10:28:40.495Z,15.97
2023-05-18T10:29:40.485Z,16.01
2023-05-18T10:30:40.494Z,16.04
2023-05-18T10:31:40.518Z,16.10
2023-05-18T10:32:40.489Z,16.15
2023-05-18T10:33:40.458Z,16.17
2023-05-18T10:34:40.613Z,16.23
2023-05-18T10:35:40.422Z,16.31
2023-05-18T10:36:40.429Z,16.35
2023-05-18T10:37:40.416Z,16.39
2023-05-18T10:38:40.480Z,16.46
2023-05-18T10:39:40.415Z,16.51
2023-05-18T10:40:40.374Z,16.57
2023-05-18T10:41:40.351Z,16.57
2023-05-18T10:42:40.374Z,16.57
2023-05-18T10:43:40.396Z,16.58
2023-05-18T10:44:40.345Z,16.65
2023-05-18T10:45:40.320Z,16.69
2023-05-18T10:46:40.355Z,16.71
2023-05-18T10:47:40.483Z,16.74
2023-05-18T10:48:40.314Z,16.79
2023-05-18T10:49:40.607Z,16.86
2023-05-18T10:50:40.285Z,16.89
2023-05-18T10:51:40.305Z,16.97
2023-05-18T10:52:40.252Z,16.99
2023-05-18T10:53:40.273Z,17.04
2023-05-18T10:54:40.268Z,17.05
2023-05-18T10:55:40.224Z,17.11
2023-05-18T10:56:40.257Z,17.16
2023-05-18T10:57:40.243Z,17.22
2023-05-18T10:58:40.190Z,17.24
2023-05-18T10:59:42.571Z,17.29
2023-05-18T11:00:40.306Z,17.33
2023-05-18T11:01:40.240Z,17.39
2023-05-18T11:02:40.384Z,17.44
2023-05-18T11:03:40.142Z,17.51
2023-05-18T11:04:40.142Z,17.57
2023-05-18T11:05:40.111Z,17.65
2023-05-18T11:06:40.159Z,17.70
2023-05-18T11:07:40.081Z,17.71
2023-05-18T11:08:40.134Z,17.76
2023-05-18T11:09:40.104Z,17.82
2023-05-18T11:10:40.093Z,17.87
2023-05-18T11:11:40.041Z,17.90
2023-05-18T11:12:40.071Z,17.97
2023-05-18T11:13:40.229Z,18.00
2023-05-18T11:14:40.205Z,18.03
2023-05-18T11:15:39.982Z,18.07
2023-05-18T11:16:40.060Z,18.10
2023-05-18T11:17:40.418Z,18.11
2023-05-18T11:18:40.007Z,18.16
2023-05-18T11:19:39.991Z,18.16
2023-05-18T11:20:40.122Z,18.20
2023-05-18T11:21:40.317Z,18.25
2023-05-18T11:22:39.954Z,18.26
2023-05-18T11:23:39.917Z,18.34
2023-05-18T11:24:40.021Z,18.35
2023-05-18T11:25:40.050Z,18.35
2023-05-18T11:26:39.928Z,18.31
2023-05-18T11:27:39.963Z,18.28
2023-05-18T11:28:39.962Z,18.25
2023-05-18T11:29:39.894Z,18.26
2023-05-18T11:30:39.858Z,18.29
2023-05-18T11:31:39.861Z,18.37
2023-05-18T11:32:39.939Z,18.41
2023-05-18T11:33:39.813Z,18.49
2023-05-18T11:34:39.994Z,18.53
2023-05-18T11:35:39.783Z,18.59
2023-05-18T11:36:39.769Z,18.60
2023-05-18T11:37:39.748Z,18.66
2023-05-18T11:38:39.795Z,18.68
2023-05-18T11:39:47.910Z,18.73
2023-05-18T11:40:39.734Z,18.77
2023-05-18T11:41:39.762Z,18.86
2023-05-18T11:42:39.717Z,18.93
2023-05-18T11:43:39.708Z,19.02
2023-05-18T11:44:39.742Z,19.07
2023-05-18T11:45:39.716Z,19.12
2023-05-18T11:46:39.691Z,19.21
2023-05-18T11:47:39.704Z,19.24
2023-05-18T11:48:39.752Z,19.29
2023-05-18T11:49:39.617Z,19.39
2023-05-18T11:50:39.669Z,19.47
2023-05-18T11:51:39.607Z,19.54
2023-05-18T11:52:39.610Z,19.59
2023-05-18T11:53:39.617Z,19.67
2023-05-18T11:54:39.604Z,19.73
2023-05-18T11:55:39.582Z,19.81
2023-05-18T11:56:39.636Z,19.86
2023-05-18T11:57:39.611Z,19.89
2023-05-18T11:58:39.613Z,19.94
2023-05-18T11:59:39.524Z,20.02
2023-05-18T12:00:39.540Z,20.04
2023-05-18T12:01:39.490Z,20.03
2023-05-18T12:02:39.612Z,20.06
2023-05-18T12:03:39.588Z,20.07
2023-05-18T12:04:39.666Z,20.10
2023-05-18T12:05:39.458Z,20.18
2023-05-18T12:06:39.459Z,20.29
2023-05-18T12:07:39.499Z,20.36
2023-05-18T12:08:39.433Z,20.41
2023-05-18T12:09:39.415Z,20.47
2023-05-18T12:10:39.427Z,20.50
2023-05-18T12:11:39.392Z,20.55
2023-05-18T12:12:39.399Z,20.59
2023-05-18T12:13:39.392Z,20.59
2023-05-18T12:14:39.385Z,20.59
2023-05-18T12:15:39.348Z,20.63
2023-05-18T12:16:39.368Z,20.70
2023-05-18T12:17:39.399Z,20.74
2023-05-18T12:18:39.366Z,20.81
2023-05-18T12:19:39.344Z,20.82
2023-05-18T12:20:39.330Z,20.87
2023-05-18T12:21:39.283Z,20.93
2023-05-18T12:22:39.333Z,20.99
2023-05-18T12:23:39.265Z,21.02
2023-05-18T12:24:39.288Z,21.02
2023-05-18T12:25:39.272Z,21.00
2023-05-18T12:26:39.269Z,21.02
2023-05-18T12:27:39.227Z,21.06
2023-05-18T12:28:39.213Z,21.09
2023-05-18T12:29:39.204Z,21.18
2023-05-18T12:30:39.201Z,21.20
2023-05-18T12:31:39.214Z,21.22
2023-05-18T12:32:39.222Z,21.27
2023-05-18T12:33:39.156Z,21.27
2023-05-18T12:34:39.156Z,21.27
2023-05-18T12:35:39.128Z,21.24
2023-05-18T12:36:39.155Z,21.21
2023-05-18T12:38:39.133Z,21.09
2023-05-18T12:39:39.097Z,21.09
2023-05-18T12:40:39.099Z,21.07
2023-05-18T12:41:39.060Z,21.05
2023-05-18T12:42:39.072Z,21.06
2023-05-18T12:43:39.079Z,21.09
2023-05-18T12:44:39.066Z,21.15
2023-05-18T12:45:39.034Z,21.20
2023-05-18T12:46:39.116Z,21.25
2023-05-18T12:47:39.130Z,21.33
2023-05-18T12:48:39.036Z,21.35
2023-05-18T12:49:39.032Z,21.36
2023-05-18T12:50:38.999Z,21.37
2023-05-18T12:51:38.963Z,21.37
2023-05-18T12:52:38.956Z,21.35
2023-05-18T12:53:39.015Z,21.33
2023-05-18T12:54:38.995Z,21.37
2023-05-18T12:55:38.954Z,21.42
2023-05-18T12:56:38.918Z,21.39
2023-05-18T12:57:38.904Z,21.37
2023-05-18T12:58:38.912Z,21.40
2023-05-18T12:59:38.901Z,21.45
2023-05-18T13:00:38.905Z,21.46
2023-05-18T13:01:38.890Z,21.40
2023-05-18T13:02:38.966Z,21.35
2023-05-18T13:03:38.956Z,21.35
2023-05-18T13:04:38.850Z,21.39
2023-05-18T13:05:38.852Z,21.42
2023-05-18T13:06:38.869Z,21.43
2023-05-18T13:07:38.792Z,21.48
2023-05-18T13:08:38.795Z,21.46
2023-05-18T13:09:38.843Z,21.39
2023-05-18T13:10:38.858Z,21.40
2023-05-18T13:11:38.764Z,21.39
2023-05-18T13:12:38.806Z,21.40
2023-05-18T13:13:38.728Z,21.46
2023-05-18T13:14:38.800Z,21.48
2023-05-18T13:15:38.721Z,21.55
2023-05-18T13:16:38.785Z,21.66
2023-05-18T13:17:38.745Z,21.72
2023-05-18T13:18:38.754Z,21.75
2023-05-18T13:19:38.679Z,21.79
2023-05-18T13:20:38.668Z,21.83
2023-05-18T13:21:38.659Z,21.91
2023-05-18T13:22:38.664Z,22.00
2023-05-18T13:23:38.646Z,22.04
2023-05-18T13:24:38.630Z,22.08
2023-05-18T13:25:38.641Z,22.15
2023-05-18T13:26:38.606Z,22.23
2023-05-18T13:27:38.567Z,22.28
2023-05-18T13:28:38.621Z,22.30
2023-05-18T13:29:38.631Z,22.33
2023-05-18T13:30:38.566Z,22.36
2023-05-18T13:31:38.562Z,22.38
2023-05-18T13:32:38.557Z,22.38
2023-05-18T13:33:38.519Z,22.45
2023-05-18T13:34:38.522Z,22.44
2023-05-18T13:35:38.532Z,22.44
2023-05-18T13:36:38.494Z,22.45
2023-05-18T13:37:38.494Z,22.45
2023-05-18T13:38:38.496Z,22.50
2023-05-18T13:39:38.460Z,22.50
2023-05-18T13:40:38.447Z,22.54
2023-05-18T13:41:38.449Z,22.57
2023-05-18T13:42:38.437Z,22.63
2023-05-18T13:43:38.410Z,22.72
2023-05-18T13:44:38.424Z,22.85
2023-05-18T13:45:38.428Z,23.00
2023-05-18T13:46:38.454Z,23.15
2023-05-18T13:47:38.412Z,23.27
2023-05-18T13:48:38.375Z,23.37
2023-05-18T13:49:38.358Z,23.48
2023-05-18T13:50:38.481Z,23.56
2023-05-18T13:51:38.362Z,23.62
2023-05-18T13:52:38.332Z,23.68
2023-05-18T13:53:39.480Z,23.69
2023-05-18T13:54:38.319Z,23.55
2023-05-18T13:55:38.285Z,23.54
2023-05-18T13:56:38.289Z,23.59
2023-05-18T13:57:38.279Z,23.63
2023-05-18T13:58:38.266Z,23.66
2023-05-18T13:59:38.242Z,23.76
2023-05-18T14:00:38.261Z,23.87
2023-05-18T14:01:38.306Z,23.99
2023-05-18T14:02:38.294Z,24.01
2023-05-18T14:03:38.273Z,24.05
2023-05-18T14:04:38.211Z,24.13
2023-05-18T14:05:38.217Z,24.18
2023-05-18T14:06:40.254Z,24.23
2023-05-18T14:07:38.172Z,24.32
2023-05-18T14:08:38.179Z,24.39
2023-05-18T14:09:38.155Z,24.30
2023-05-18T14:10:38.206Z,24.18
2023-05-18T14:11:38.178Z,24.29
2023-05-18T14:12:38.143Z,24.40
2023-05-18T14:13:38.096Z,24.50
2023-05-18T14:14:38.147Z,24.60
2023-05-18T14:15:38.081Z,24.69
2023-05-18T14:16:38.086Z,24.76
2023-05-18T14:17:38.069Z,24.85
2023-05-18T14:18:38.134Z,24.92
2023-05-18T14:19:38.058Z,24.98
2023-05-18T14:20:38.068Z,25.08
2023-05-18T14:21:38.024Z,25.25
2023-05-18T14:22:38.033Z,25.33
2023-05-18T14:23:37.994Z,25.46
2023-05-18T14:24:38.012Z,25.54
2023-05-18T14:25:37.975Z,25.63
2023-05-18T14:26:38.020Z,25.62
2023-05-18T14:27:37.942Z,25.81
2023-05-18T14:28:37.960Z,25.95
2023-05-18T14:29:37.930Z,26.15
2023-05-18T14:30:37.922Z,26.25
2023-05-18T14:31:38.085Z,26.34
2023-05-18T14:32:37.992Z,26.38
2023-05-18T14:33:37.894Z,26.44
2023-05-18T14:34:37.878Z,26.52
2023-05-18T14:35:37.914Z,26.52
2023-05-18T14:36:37.896Z,26.51
2023-05-18T14:37:37.875Z,26.58
2023-05-18T14:38:37.877Z,26.66
2023-05-18T14:39:37.849Z,26.77
2023-05-18T14:40:37.829Z,26.78
2023-05-18T14:41:37.809Z,26.85
2023-05-18T14:42:37.791Z,26.90
2023-05-18T14:43:37.795Z,26.89
2023-05-18T14:44:37.795Z,26.80
2023-05-18T14:45:37.793Z,26.53
2023-05-18T14:46:37.802Z,26.47
2023-05-18T14:47:37.857Z,26.68
2023-05-18T14:48:37.727Z,26.80
2023-05-18T14:49:37.759Z,26.89
2023-05-18T14:50:38.616Z,26.92
2023-05-18T14:51:37.721Z,26.88
2023-05-18T14:52:37.742Z,26.80
2023-05-18T14:53:37.704Z,26.77
2023-05-18T14:54:37.657Z,26.77
2023-05-18T14:55:37.687Z,26.71
2023-05-18T14:56:37.660Z,26.60
2023-05-18T14:57:37.682Z,26.53
2023-05-18T14:58:37.635Z,26.59
2023-05-18T14:59:37.657Z,26.68
2023-05-18T15:00:37.613Z,26.81
2023-05-18T15:01:37.667Z,26.92
2023-05-18T15:02:37.836Z,27.08
2023-05-18T15:03:37.839Z,27.18
2023-05-18T15:04:37.565Z,27.32
2023-05-18T15:05:37.570Z,27.47
2023-05-18T15:06:37.584Z,27.63
2023-05-18T15:07:37.562Z,27.78
2023-05-18T15:08:37.539Z,28.00
2023-05-18T15:09:37.560Z,28.12
2023-05-18T15:10:37.518Z,28.14
2023-05-18T15:11:37.508Z,28.29
2023-05-18T15:12:37.485Z,28.39
2023-05-18T15:13:37.530Z,28.54
2023-05-18T15:14:37.471Z,28.48
2023-05-18T15:15:37.473Z,28.29
2023-05-18T15:16:37.610Z,28.20
2023-05-18T15:17:37.530Z,28.14
2023-05-18T15:18:37.474Z,28.00
2023-05-18T15:19:37.507Z,27.75
2023-05-18T15:20:39.194Z,27.58
2023-05-18T15:21:37.403Z,27.37
2023-05-18T15:22:37.391Z,27.02
2023-05-18T15:23:37.385Z,26.65
2023-05-18T15:24:37.367Z,26.28
2023-05-18T15:25:37.363Z,25.99
2023-05-18T15:26:37.383Z,25.73
2023-05-18T15:27:37.371Z,25.48
2023-05-18T15:28:37.331Z,25.36
2023-05-18T15:29:37.344Z,25.22
2023-05-18T15:30:37.314Z,25.13
2023-05-18T15:31:37.318Z,25.08
2023-05-18T15:32:37.324Z,24.99
2023-05-18T15:33:37.298Z,24.91
2023-05-18T15:34:37.292Z,24.85
2023-05-18T15:35:37.291Z,24.81
2023-05-18T15:36:37.269Z,24.78
2023-05-18T15:37:37.252Z,24.68
2023-05-18T15:38:37.237Z,24.58
2023-05-18T15:39:37.224Z,24.38
2023-05-18T15:40:37.195Z,24.30
2023-05-18T15:41:37.233Z,24.28
2023-05-18T15:42:37.180Z,24.28
2023-05-18T15:43:37.177Z,24.28
2023-05-18T15:44:37.180Z,24.30
2023-05-18T15:45:37.210Z,24.30
2023-05-18T15:46:37.122Z,24.28
2023-05-18T15:47:37.162Z,24.23
2023-05-18T15:48:37.117Z,24.18
2023-05-18T15:49:37.176Z,24.11
2023-05-18T15:50:37.088Z,24.03
2023-05-18T15:51:37.085Z,23.92
2023-05-18T15:52:37.068Z,23.84
2023-05-18T15:53:37.067Z,23.83
2023-05-18T15:54:37.055Z,23.76
2023-05-18T15:55:37.075Z,23.73
2023-05-18T15:56:37.022Z,23.63
2023-05-18T15:57:37.035Z,23.50
2023-05-18T15:58:37.007Z,23.41
2023-05-18T15:59:37.018Z,23.34
2023-05-18T16:00:36.993Z,23.15
2023-05-18T16:01:37.145Z,23.00
2023-05-18T16:02:37.064Z,22.96
2023-05-18T16:03:37.056Z,22.93
2023-05-18T16:04:36.953Z,22.91
2023-05-18T16:05:36.949Z,22.91
2023-05-18T16:06:36.952Z,22.91
2023-05-18T16:07:36.949Z,22.90
2023-05-18T16:08:36.898Z,22.90
2023-05-18T16:09:36.909Z,22.88
2023-05-18T16:10:36.879Z,22.88
2023-05-18T16:11:36.894Z,22.88
2023-05-18T16:12:36.880Z,22.87
2023-05-18T16:13:36.889Z,22.88
2023-05-18T16:14:36.828Z,22.85
2023-05-18T16:15:36.855Z,22.80
2023-05-18T16:16:36.884Z,22.75
2023-05-18T16:17:36.887Z,22.69
2023-05-18T16:18:36.842Z,22.66
2023-05-18T16:19:36.827Z,22.60
2023-05-18T16:20:36.797Z,22.53
2023-05-18T16:21:36.806Z,22.45
2023-05-18T16:22:36.769Z,22.39
2023-05-18T16:23:36.784Z,22.33
2023-05-18T16:24:36.723Z,22.30
2023-05-18T16:25:36.753Z,22.23
2023-05-18T16:26:38.545Z,22.22
2023-05-18T16:27:36.728Z,22.18
2023-05-18T16:28:36.685Z,22.29
2023-05-18T16:29:36.710Z,22.36
2023-05-18T16:30:36.684Z,22.41
2023-05-18T16:31:36.720Z,22.38
2023-05-18T16:32:36.711Z,22.28
2023-05-18T16:33:36.693Z,22.14
2023-05-18T16:34:36.620Z,22.07
2023-05-18T16:35:36.657Z,21.96
2023-05-18T16:36:36.640Z,21.93
2023-05-18T16:37:36.621Z,21.91
2023-05-18T16:38:36.584Z,21.91
2023-05-18T16:39:36.609Z,21.92
2023-05-18T16:40:36.572Z,21.83
2023-05-18T16:41:36.601Z,21.79
2023-05-18T16:42:36.588Z,21.73
2023-05-18T16:43:36.549Z,21.70
2023-05-18T16:44:36.518Z,21.66
2023-05-18T16:45:36.556Z,21.61
2023-05-18T16:46:36.519Z,21.55
2023-05-18T16:47:36.552Z,21.57
2023-05-18T16:48:36.501Z,21.52
2023-05-18T16:49:36.477Z,21.54
2023-05-18T16:50:36.522Z,21.57
2023-05-18T16:51:36.476Z,21.60
2023-05-18T16:52:36.436Z,21.60
2023-05-18T16:53:36.433Z,21.58
2023-05-18T16:54:36.422Z,21.54
2023-05-18T16:55:36.508Z,21.48
2023-05-18T16:56:36.415Z,21.40
2023-05-18T16:57:36.398Z,21.39
2023-05-18T16:58:36.389Z,21.42
2023-05-18T16:59:36.373Z,21.40
2023-05-18T17:00:36.397Z,21.40
2023-05-18T17:01:36.422Z,21.37
2023-05-18T17:02:38.125Z,21.35
2023-05-18T17:03:36.421Z,21.36
2023-05-18T17:04:36.306Z,21.36
2023-05-18T17:05:36.323Z,21.33
2023-05-18T17:06:36.285Z,21.35
2023-05-18T17:07:36.399Z,21.37
2023-05-18T17:08:36.265Z,21.39
2023-05-18T17:09:36.258Z,21.40
2023-05-18T17:10:36.273Z,21.42
2023-05-18T17:11:36.252Z,21.45
2023-05-18T17:12:36.209Z,21.48
2023-05-18T17:13:36.236Z,21.48
2023-05-18T17:14:36.182Z,21.48
2023-05-18T17:15:36.327Z,21.43
2023-05-18T17:16:36.346Z,21.39
2023-05-18T17:17:36.216Z,21.33
2023-05-18T17:18:36.228Z,21.30
2023-05-18T17:19:36.152Z,21.27
2023-05-18T17:20:36.132Z,21.24
2023-05-18T17:21:36.129Z,21.17
2023-05-18T17:22:36.112Z,21.12
2023-05-18T17:23:36.153Z,21.06
2023-05-18T17:24:36.219Z,20.99
2023-05-18T17:25:36.184Z,20.92
2023-05-18T17:26:36.076Z,20.87
2023-05-18T17:27:36.124Z,20.82
2023-05-18T17:28:36.055Z,20.84